createdAt,value
2023-02-19T00:01:10.420Z,97179.66
2023-02-19T00:03:38.127Z,97183.94
2023-02-19T00:06:07.027Z,97169.78
2023-02-19T00:08:34.839Z,97186.00
2023-02-19T00:11:05.953Z,97181.31
2023-02-19T00:13:36.956Z,97174.53
2023-02-19T00:16:08.728Z,97169.84
2023-02-19T00:18:35.914Z,97170.03
2023-02-19T00:21:03.446Z,97174.59
2023-02-19T00:23:30.260Z,97180.13
2023-02-19T00:26:01.103Z,97167.94
2023-02-19T00:28:36.777Z,97180.06
2023-02-19T00:31:18.790Z,97176.22
2023-02-19T00:33:46.924Z,97171.00
2023-02-19T00:36:14.265Z,97175.28
2023-02-19T00:38:42.868Z,97174.03
2023-02-19T00:41:19.819Z,97173.06
2023-02-19T00:43:55.235Z,97168.13
2023-02-19T00:46:29.674Z,97162.44
2023-02-19T00:48:57.881Z,97169.84
2023-02-19T00:51:27.392Z,97163.41
2023-02-19T00:53:54.662Z,97168.31
2023-02-19T00:56:21.607Z,97158.13
2023-02-19T00:58:48.583Z,97148.25
2023-02-19T01:01:15.979Z,97162.97
2023-02-19T01:03:42.593Z,97164.66
2023-02-19T01:06:11.450Z,97165.88
2023-02-19T01:08:38.271Z,97157.09
2023-02-19T01:11:07.595Z,97147.03
2023-02-19T01:13:34.939Z,97158.75
2023-02-19T01:16:04.715Z,97152.03
2023-02-19T01:18:32.089Z,97141.38
2023-02-19T01:20:58.913Z,97141.47
2023-02-19T01:23:25.777Z,97143.28
2023-02-19T01:25:52.337Z,97140.34
2023-02-19T01:28:18.799Z,97134.88
2023-02-19T01:30:45.416Z,97116.94
2023-02-19T01:33:12.016Z,97131.03
2023-02-19T01:35:39.179Z,97108.44
2023-02-19T01:38:07.447Z,97104.28
2023-02-19T01:40:34.647Z,97102.28
2023-02-19T01:43:01.267Z,97099.31
2023-02-19T01:45:29.453Z,97097.56
2023-02-19T01:48:04.139Z,97082.28
2023-02-19T01:50:36.037Z,97081.09
2023-02-19T01:53:06.260Z,97076.69
2023-02-19T01:55:34.711Z,97086.97
2023-02-19T01:58:02.198Z,97064.41
2023-02-19T02:00:29.160Z,97081.06
2023-02-19T02:02:58.092Z,97045.16
2023-02-19T02:05:56.642Z,97070.69
2023-02-19T02:08:43.873Z,97067.53
2023-02-19T02:11:10.807Z,97079.22
2023-02-19T02:13:39.114Z,97078.47
2023-02-19T02:16:06.178Z,97084.13
2023-02-19T02:18:35.386Z,97065.88
2023-02-19T02:21:31.083Z,97058.41
2023-02-19T02:24:09.520Z,97045.25
2023-02-19T02:26:46.504Z,97038.63
2023-02-19T02:29:20.639Z,97015.50
2023-02-19T02:31:54.069Z,97028.78
2023-02-19T02:34:27.118Z,97026.63
2023-02-19T02:36:56.669Z,97033.72
2023-02-19T02:39:27.068Z,97034.66
2023-02-19T02:42:17.912Z,97024.84
2023-02-19T02:45:11.289Z,97025.16
2023-02-19T02:47:49.914Z,97018.25
2023-02-19T02:50:25.588Z,97024.38
2023-02-19T02:53:18.249Z,97021.31
2023-02-19T02:55:49.122Z,97025.03
2023-02-19T02:58:17.490Z,97014.47
2023-02-19T03:01:09.002Z,97018.88
2023-02-19T03:03:39.350Z,96999.56
2023-02-19T03:06:08.323Z,96998.31
2023-02-19T03:08:40.481Z,96994.56
2023-02-19T03:11:30.742Z,97000.84
2023-02-19T03:14:27.006Z,97012.59
2023-02-19T03:17:19.166Z,96995.13
2023-02-19T03:19:52.827Z,96995.06
2023-02-19T03:22:42.230Z,97006.25
2023-02-19T03:25:53.767Z,96991.59
2023-02-19T03:28:53.576Z,97006.09
2023-02-19T03:31:25.118Z,97002.25
2023-02-19T03:33:57.400Z,97002.63
2023-02-19T03:36:28.210Z,96995.22
2023-02-19T03:39:06.728Z,97002.50
2023-02-19T03:41:50.564Z,97012.00
2023-02-19T03:44:27.574Z,97003.22
2023-02-19T03:47:05.248Z,97016.16
2023-02-19T03:49:37.569Z,97004.28
2023-02-19T03:52:16.030Z,96978.78
2023-02-19T03:55:06.515Z,97013.47
2023-02-19T03:57:52.291Z,96991.13
2023-02-19T04:00:23.217Z,96997.97
2023-02-19T04:03:01.184Z,96990.19
2023-02-19T04:05:35.880Z,96988.00
2023-02-19T04:08:14.113Z,96995.19
2023-02-19T04:10:46.946Z,96972.22
2023-02-19T04:13:20.619Z,96998.25
2023-02-19T04:15:50.364Z,96995.56
2023-02-19T04:18:25.646Z,96996.31
2023-02-19T04:20:52.988Z,96985.03
2023-02-19T04:23:23.179Z,97002.03
2023-02-19T04:25:56.181Z,96998.31
2023-02-19T04:28:22.802Z,96996.44
2023-02-19T04:30:49.427Z,97012.06
2023-02-19T04:33:16.077Z,96995.22
2023-02-19T04:35:42.682Z,97010.69
2023-02-19T04:38:09.213Z,97008.59
2023-02-19T04:40:35.618Z,97010.59
2023-02-19T04:43:02.266Z,97014.16
2023-02-19T04:45:28.785Z,96991.66
2023-02-19T04:47:55.242Z,97021.88
2023-02-19T04:50:23.178Z,97024.25
2023-02-19T04:52:49.966Z,97009.94
2023-02-19T04:55:16.743Z,97015.06
2023-02-19T04:57:43.301Z,97024.28
2023-02-19T05:00:10.505Z,97031.28
2023-02-19T05:02:37.024Z,97025.09
2023-02-19T05:05:04.113Z,97026.03
2023-02-19T05:07:30.698Z,97030.00
2023-02-19T05:09:57.220Z,97018.91
2023-02-19T05:12:23.753Z,97019.34
2023-02-19T05:14:50.277Z,97032.59
2023-02-19T05:17:16.776Z,97036.63
2023-02-19T05:19:43.251Z,97043.34
2023-02-19T05:22:09.794Z,97040.13
2023-02-19T05:24:36.219Z,97040.06
2023-02-19T05:27:02.740Z,97047.69
2023-02-19T05:29:30.910Z,97058.00
2023-02-19T05:31:57.602Z,97054.28
2023-02-19T05:34:24.213Z,97049.03
2023-02-19T05:36:50.703Z,97058.34
2023-02-19T05:39:17.141Z,97059.38
2023-02-19T05:41:43.744Z,97054.50
2023-02-19T05:44:11.404Z,97059.13
2023-02-19T05:46:37.987Z,97049.38
2023-02-19T05:49:04.645Z,97049.78
2023-02-19T05:51:31.203Z,97055.59
2023-02-19T05:53:58.102Z,97056.44
2023-02-19T05:56:34.669Z,97067.50
2023-02-19T05:59:03.983Z,97080.16
2023-02-19T06:01:30.959Z,97077.22
2023-02-19T06:03:58.136Z,97068.13
2023-02-19T06:06:25.791Z,97067.63
2023-02-19T06:08:53.170Z,97068.59
2023-02-19T06:11:19.973Z,97076.69
2023-02-19T06:13:46.943Z,97087.81
2023-02-19T06:16:13.628Z,97066.66
2023-02-19T06:18:42.960Z,97068.88
2023-02-19T06:21:11.521Z,97087.25
2023-02-19T06:23:39.365Z,97083.31
2023-02-19T06:26:23.372Z,97090.31
2023-02-19T06:28:51.570Z,97085.59
2023-02-19T06:31:19.565Z,97097.81
2023-02-19T06:33:46.815Z,97082.75
2023-02-19T06:36:16.036Z,97088.38
2023-02-19T06:38:43.057Z,97120.63
2023-02-19T06:41:11.095Z,97124.59
2023-02-19T06:43:37.996Z,97116.69
2023-02-19T06:46:06.490Z,97133.50
2023-02-19T06:48:33.864Z,97113.03
2023-02-19T06:51:00.541Z,97114.38
2023-02-19T06:53:27.533Z,97114.53
2023-02-19T06:56:05.925Z,97131.19
2023-02-19T06:58:34.114Z,97129.50
2023-02-19T07:01:00.646Z,97111.59
2023-02-19T07:03:27.204Z,97132.84
2023-02-19T07:05:53.877Z,97130.06
2023-02-19T07:08:20.668Z,97153.63
2023-02-19T07:10:55.637Z,97134.41
2023-02-19T07:13:22.876Z,97130.75
2023-02-19T07:15:51.929Z,97129.50
2023-02-19T07:18:18.629Z,97143.56
2023-02-19T07:20:45.027Z,97162.50
2023-02-19T07:23:11.563Z,97147.19
2023-02-19T07:25:38.602Z,97161.72
2023-02-19T07:28:06.089Z,97148.44
2023-02-19T07:30:32.653Z,97164.72
2023-02-19T07:32:59.302Z,97168.44
2023-02-19T07:35:25.952Z,97140.34
2023-02-19T07:37:52.440Z,97159.53
2023-02-19T07:40:18.853Z,97185.84
2023-02-19T07:42:45.330Z,97170.34
2023-02-19T07:45:11.735Z,97197.59
2023-02-19T07:47:38.160Z,97198.13
2023-02-19T07:50:04.623Z,97197.72
2023-02-19T07:52:31.310Z,97192.66
2023-02-19T07:54:57.743Z,97200.75
2023-02-19T07:57:24.159Z,97178.56
2023-02-19T07:59:50.610Z,97204.88
2023-02-19T08:02:36.190Z,97219.66
2023-02-19T08:05:02.994Z,97216.41
2023-02-19T08:07:34.752Z,97205.56
2023-02-19T08:10:20.487Z,97218.38
2023-02-19T08:13:16.729Z,97227.91
2023-02-19T08:15:43.508Z,97208.09
2023-02-19T08:18:10.567Z,97217.94
2023-02-19T08:20:37.383Z,97200.69
2023-02-19T08:23:04.182Z,97208.44
2023-02-19T08:25:30.665Z,97211.25
2023-02-19T08:27:57.088Z,97232.53
2023-02-19T08:30:24.065Z,97217.56
2023-02-19T08:32:50.600Z,97219.09
2023-02-19T08:35:17.017Z,97238.50
2023-02-19T08:37:43.525Z,97211.34
2023-02-19T08:40:10.380Z,97242.03
2023-02-19T08:42:36.905Z,97215.97
2023-02-19T08:45:03.561Z,97250.38
2023-02-19T08:47:30.010Z,97236.91
2023-02-19T08:49:56.391Z,97261.47
2023-02-19T08:52:22.864Z,97251.03
2023-02-19T08:54:49.234Z,97268.50
2023-02-19T08:57:15.849Z,97281.47
2023-02-19T08:59:42.208Z,97281.22
2023-02-19T09:02:09.576Z,97265.13
2023-02-19T09:04:37.727Z,97275.06
2023-02-19T09:07:07.717Z,97286.38
2023-02-19T09:09:36.332Z,97259.34
2023-02-19T09:12:05.227Z,97293.63
2023-02-19T09:14:33.605Z,97267.38
2023-02-19T09:17:01.294Z,97259.41
2023-02-19T09:19:28.359Z,97262.81
2023-02-19T09:21:55.515Z,97273.19
2023-02-19T09:24:22.493Z,97298.94
2023-02-19T09:26:50.389Z,97306.72
2023-02-19T09:29:17.229Z,97276.53
2023-02-19T09:31:43.908Z,97272.00
2023-02-19T09:34:11.744Z,97293.31
2023-02-19T09:36:39.599Z,97316.72
2023-02-19T09:39:08.344Z,97303.72
2023-02-19T09:41:46.389Z,97310.53
2023-02-19T09:44:20.856Z,97314.19
2023-02-19T09:46:49.797Z,97308.84
2023-02-19T09:49:36.040Z,97324.63
2023-02-19T09:52:07.694Z,97316.81
2023-02-19T09:54:37.201Z,97327.44
2023-02-19T09:57:04.830Z,97319.31
2023-02-19T09:59:44.727Z,97330.47
2023-02-19T10:02:15.773Z,97336.13
2023-02-19T10:04:43.971Z,97344.34
2023-02-19T10:07:13.366Z,97329.00
2023-02-19T10:09:40.346Z,97327.44
2023-02-19T10:12:16.034Z,97326.31
2023-02-19T10:14:47.488Z,97330.84
2023-02-19T10:17:23.513Z,97316.81
2023-02-19T10:19:51.387Z,97310.34
2023-02-19T10:22:19.220Z,97317.56
2023-02-19T10:24:49.794Z,97329.06
2023-02-19T10:27:16.236Z,97323.13
2023-02-19T10:29:43.660Z,97338.34
2023-02-19T10:32:23.951Z,97343.16
2023-02-19T10:35:14.659Z,97329.47
2023-02-19T10:37:49.878Z,97331.81
2023-02-19T10:40:23.197Z,97338.72
2023-02-19T10:42:53.682Z,97339.31
2023-02-19T10:45:24.213Z,97338.00
2023-02-19T10:47:51.443Z,97325.72
2023-02-19T10:50:30.734Z,97327.41
2023-02-19T10:52:58.941Z,97353.06
2023-02-19T10:55:30.660Z,97349.22
2023-02-19T10:57:58.002Z,97353.38
2023-02-19T11:00:28.844Z,97365.38
2023-02-19T11:03:16.953Z,97379.31
2023-02-19T11:05:59.971Z,97358.19
2023-02-19T11:08:27.337Z,97375.78
2023-02-19T11:10:54.284Z,97373.19
2023-02-19T11:13:30.940Z,97377.19
2023-02-19T11:33:27.825Z,97360.19
2023-02-19T11:36:18.292Z,97356.84
2023-02-19T11:38:44.856Z,97330.72
2023-02-19T11:41:21.211Z,97354.03
2023-02-19T11:44:04.095Z,97348.00
2023-02-19T11:47:13.624Z,97347.28
2023-02-19T11:49:52.500Z,97352.53
2023-02-19T11:52:45.007Z,97367.72
2023-02-19T11:55:25.424Z,97332.22
2023-02-19T11:58:12.179Z,97355.81
2023-02-19T12:00:51.629Z,97346.88
2023-02-19T12:03:49.272Z,97348.41
2023-02-19T12:06:28.951Z,97345.84
2023-02-19T12:09:27.959Z,97343.94
2023-02-19T12:12:24.550Z,97367.44
2023-02-19T12:15:13.224Z,97378.91
2023-02-19T12:17:59.762Z,97364.34
2023-02-19T12:20:43.651Z,97364.78
2023-02-19T12:23:36.509Z,97380.25
2023-02-19T12:26:23.942Z,97390.13
2023-02-19T12:29:27.861Z,97391.25
2023-02-19T12:32:13.158Z,97378.25
2023-02-19T12:35:02.007Z,97397.16
2023-02-19T12:37:58.923Z,97394.47
2023-02-19T12:40:37.291Z,97390.81
2023-02-19T12:43:11.007Z,97402.75
2023-02-19T12:45:47.394Z,97398.44
2023-02-19T12:48:16.856Z,97394.47
2023-02-19T12:50:47.543Z,97369.38
2023-02-19T12:53:30.031Z,97390.16
2023-02-19T12:55:59.606Z,97395.97
2023-02-19T12:58:31.265Z,97375.69
2023-02-19T13:00:59.692Z,97393.16
2023-02-19T13:03:34.178Z,97396.59
2023-02-19T13:06:16.700Z,97379.97
2023-02-19T13:09:06.447Z,97386.88
2023-02-19T13:11:39.771Z,97407.66
2023-02-19T13:14:17.827Z,97407.03
2023-02-19T13:16:50.870Z,97389.44
2023-02-19T13:19:17.412Z,97386.09
2023-02-19T13:22:05.707Z,97393.31
2023-02-19T13:24:36.300Z,97389.94
2023-02-19T13:27:29.148Z,97397.78
2023-02-19T13:30:07.574Z,97381.84
2023-02-19T13:33:05.320Z,97398.97
2023-02-19T13:36:06.004Z,97398.03
2023-02-19T13:38:38.629Z,97389.88
2023-02-19T13:41:05.598Z,97402.00
2023-02-19T13:43:38.875Z,97364.53
2023-02-19T13:46:12.327Z,97364.88
2023-02-19T13:48:41.179Z,97379.56
2023-02-19T13:51:16.892Z,97368.41
2023-02-19T13:53:44.681Z,97382.25
2023-02-19T13:56:37.777Z,97392.38
2023-02-19T13:59:22.635Z,97378.81
2023-02-19T14:01:58.245Z,97358.56
2023-02-19T14:04:31.660Z,97327.97
2023-02-19T14:07:04.072Z,97365.47
2023-02-19T14:09:45.552Z,97360.81
2023-02-19T14:12:16.133Z,97362.13
2023-02-19T14:14:46.861Z,97361.28
2023-02-19T14:17:31.850Z,97376.50
2023-02-19T14:19:59.583Z,97388.97
2023-02-19T14:22:47.799Z,97387.69
2023-02-19T14:25:40.647Z,97389.94
2023-02-19T14:28:33.491Z,97389.03
2023-02-19T14:31:09.057Z,97395.53
2023-02-19T14:33:40.133Z,97385.38
2023-02-19T14:36:14.589Z,97385.09
2023-02-19T14:38:56.621Z,97415.97
2023-02-19T14:41:24.709Z,97406.53
2023-02-19T14:43:54.144Z,97422.16
2023-02-19T14:46:29.711Z,97411.78
2023-02-19T14:49:02.607Z,97409.22
2023-02-19T14:51:36.150Z,97412.00
2023-02-19T14:54:14.076Z,97398.75
2023-02-19T14:56:48.223Z,97405.63
2023-02-19T14:59:23.909Z,97363.31
2023-02-19T15:01:59.926Z,97411.78
2023-02-19T15:04:31.247Z,97426.69
2023-02-19T15:07:02.354Z,97410.13
2023-02-19T15:09:33.162Z,97403.66
2023-02-19T15:12:00.535Z,97433.09
2023-02-19T15:14:30.661Z,97435.00
2023-02-19T15:17:01.080Z,97443.97
2023-02-19T15:19:29.340Z,97423.38
2023-02-19T15:21:55.936Z,97438.44
2023-02-19T15:24:22.696Z,97445.78
2023-02-19T15:26:54.240Z,97442.38
2023-02-19T15:29:25.330Z,97438.13
2023-02-19T15:31:55.067Z,97432.13
2023-02-19T15:34:24.578Z,97408.03
2023-02-19T15:36:55.334Z,97415.69
2023-02-19T15:39:30.566Z,97424.94
2023-02-19T15:42:00.606Z,97427.69
2023-02-19T15:45:03.927Z,97405.69
2023-02-19T15:47:39.988Z,97433.63
2023-02-19T15:50:15.104Z,97430.16
2023-02-19T15:52:48.770Z,97425.72
2023-02-19T15:55:36.616Z,97442.47
2023-02-19T15:58:14.148Z,97445.72
2023-02-19T16:00:54.151Z,97397.81
2023-02-19T16:03:23.513Z,97425.47
2023-02-19T16:06:10.630Z,97449.53
2023-02-19T16:08:39.558Z,97443.28
2023-02-19T16:11:27.548Z,97444.75
2023-02-19T16:14:33.506Z,97451.19
2023-02-19T16:17:12.009Z,97445.19
2023-02-19T16:20:04.715Z,97466.28
2023-02-19T16:22:40.589Z,97461.38
2023-02-19T16:25:07.881Z,97449.16
2023-02-19T16:27:38.538Z,97470.47
2023-02-19T16:30:17.490Z,97508.09
2023-02-19T16:32:45.312Z,97482.78
2023-02-19T16:35:35.698Z,97527.25
2023-02-19T16:38:02.937Z,97519.19
2023-02-19T16:40:47.824Z,97527.44
2023-02-19T16:43:14.350Z,97530.44
2023-02-19T16:45:41.292Z,97535.47
2023-02-19T16:48:08.930Z,97474.72
2023-02-19T16:50:35.420Z,97529.22
2023-02-19T16:53:02.841Z,97534.25
2023-02-19T16:55:32.185Z,97529.22
2023-02-19T16:57:58.684Z,97529.03
2023-02-19T17:00:27.350Z,97531.81
2023-02-19T17:02:57.106Z,97504.47
2023-02-19T17:05:27.317Z,97476.50
2023-02-19T17:07:53.775Z,97554.53
2023-02-19T17:10:22.980Z,97559.75
2023-02-19T17:12:53.533Z,97518.94
2023-02-19T17:15:20.376Z,97553.72
2023-02-19T17:17:47.083Z,97540.47
2023-02-19T17:20:16.551Z,97557.78
2023-02-19T17:22:43.733Z,97548.94
2023-02-19T17:25:10.529Z,97572.44
2023-02-19T17:27:37.047Z,97577.22
2023-02-19T17:30:03.756Z,97584.50
2023-02-19T17:32:30.383Z,97574.78
2023-02-19T17:34:56.919Z,97561.34
2023-02-19T17:37:23.309Z,97584.88
2023-02-19T17:39:49.740Z,97580.91
2023-02-19T17:42:16.138Z,97605.84
2023-02-19T17:44:42.804Z,97564.34
2023-02-19T17:47:09.294Z,97591.78
2023-02-19T17:49:36.324Z,97612.66
2023-02-19T17:52:02.818Z,97591.25
2023-02-19T17:54:29.236Z,97621.88
2023-02-19T17:56:55.719Z,97603.00
2023-02-19T17:59:22.073Z,97617.66
2023-02-19T18:01:48.552Z,97624.72
2023-02-19T18:04:15.077Z,97615.47
2023-02-19T18:06:42.885Z,97604.00
2023-02-19T18:09:10.735Z,97586.41
2023-02-19T18:11:37.496Z,97625.09
2023-02-19T18:14:04.000Z,97604.13
2023-02-19T18:16:30.396Z,97652.22
2023-02-19T18:18:58.352Z,97634.31
2023-02-19T18:21:25.086Z,97641.34
2023-02-19T18:23:51.539Z,97649.34
2023-02-19T18:26:19.673Z,97665.91
2023-02-19T18:28:46.169Z,97599.38
2023-02-19T18:31:13.052Z,97665.13
2023-02-19T18:33:39.803Z,97652.66
2023-02-19T18:36:10.030Z,97664.91
2023-02-19T18:38:36.477Z,97657.66
2023-02-19T18:41:02.829Z,97672.13
2023-02-19T18:43:29.303Z,97656.84
2023-02-19T18:45:55.719Z,97664.59
2023-02-19T18:48:22.186Z,97653.63
2023-02-19T18:50:48.576Z,97669.75
2023-02-19T18:53:15.038Z,97656.22
2023-02-19T18:55:41.683Z,97663.78
2023-02-19T18:58:08.222Z,97656.88
2023-02-19T19:00:34.777Z,97648.84
2023-02-19T19:03:02.605Z,97668.31
2023-02-19T19:05:29.141Z,97652.88
2023-02-19T19:07:59.041Z,97676.41
2023-02-19T19:10:26.301Z,97693.69
2023-02-19T19:12:54.078Z,97668.50
2023-02-19T19:15:20.955Z,97694.72
2023-02-19T19:17:48.278Z,97674.03
2023-02-19T19:20:17.744Z,97662.19
2023-02-19T19:22:44.334Z,97658.34
2023-02-19T19:25:10.822Z,97662.56
2023-02-19T19:27:37.268Z,97668.16
2023-02-19T19:30:04.802Z,97616.75
2023-02-19T19:32:31.280Z,97653.97
2023-02-19T19:34:57.793Z,97659.97
2023-02-19T19:37:24.989Z,97663.91
2023-02-19T19:39:52.616Z,97678.69
2023-02-19T19:42:19.022Z,97689.06
2023-02-19T19:44:45.532Z,97673.34
2023-02-19T19:47:11.983Z,97696.25
2023-02-19T19:49:38.683Z,97676.81
2023-02-19T19:52:05.320Z,97678.16
2023-02-19T19:54:31.821Z,97680.19
2023-02-19T19:56:58.229Z,97690.47
2023-02-19T19:59:24.834Z,97688.75
2023-02-19T20:02:01.713Z,97691.06
2023-02-19T20:04:28.197Z,97698.31
2023-02-19T20:06:54.885Z,97691.47
2023-02-19T20:09:25.409Z,97693.03
2023-02-19T20:11:53.753Z,97691.72
2023-02-19T20:14:22.489Z,97694.53
2023-02-19T20:16:49.827Z,97671.63
2023-02-19T20:19:17.835Z,97688.03
2023-02-19T20:21:49.562Z,97693.47
2023-02-19T20:24:17.983Z,97693.34
2023-02-19T20:26:44.972Z,97662.84
2023-02-19T20:29:11.850Z,97665.72
2023-02-19T20:31:38.966Z,97686.41
2023-02-19T20:34:05.690Z,97664.19
2023-02-19T20:36:32.784Z,97672.03
2023-02-19T20:38:59.267Z,97689.09
2023-02-19T20:41:25.758Z,97700.97
2023-02-19T20:43:52.264Z,97683.53
2023-02-19T20:46:18.679Z,97700.16
2023-02-19T20:48:45.208Z,97689.50
2023-02-19T20:51:11.635Z,97696.75
2023-02-19T20:53:39.330Z,97696.16
2023-02-19T20:56:06.624Z,97693.88
2023-02-19T20:58:33.670Z,97627.38
2023-02-19T21:01:00.149Z,97676.97
2023-02-19T21:03:26.616Z,97697.22
2023-02-19T21:05:53.075Z,97690.44
2023-02-19T21:08:19.464Z,97703.16
2023-02-19T21:10:46.365Z,97653.13
2023-02-19T21:13:13.353Z,97685.22
2023-02-19T21:15:39.866Z,97660.69
2023-02-19T21:18:06.349Z,97713.31
2023-02-19T21:20:33.043Z,97689.38
2023-02-19T21:22:59.521Z,97706.41
2023-02-19T21:25:26.035Z,97665.38
2023-02-19T21:27:52.582Z,97700.47
2023-02-19T21:30:19.320Z,97696.56
2023-02-19T21:32:45.791Z,97674.13
2023-02-19T21:35:12.244Z,97717.50
2023-02-19T21:37:42.102Z,97697.91
2023-02-19T21:40:09.457Z,97702.63
2023-02-19T21:42:35.933Z,97716.31
2023-02-19T21:45:03.595Z,97725.78
2023-02-19T21:47:30.042Z,97722.41
2023-02-19T21:49:56.499Z,97711.03
2023-02-19T21:52:23.384Z,97721.84
2023-02-19T21:54:49.883Z,97719.56
2023-02-19T21:57:16.363Z,97721.16
2023-02-19T21:59:42.987Z,97708.19
2023-02-19T22:02:09.565Z,97712.06
2023-02-19T22:04:36.049Z,97706.94
2023-02-19T22:07:02.418Z,97727.19
2023-02-19T22:09:28.946Z,97697.13
2023-02-19T22:11:55.466Z,97719.25
2023-02-19T22:14:21.857Z,97725.81
2023-02-19T22:16:48.496Z,97700.44
2023-02-19T22:19:15.115Z,97702.09
2023-02-19T22:21:43.956Z,97712.84
2023-02-19T22:24:18.952Z,97727.56
2023-02-19T22:26:45.950Z,97726.09
2023-02-19T22:29:14.775Z,97722.84
2023-02-19T22:31:41.422Z,97714.94
2023-02-19T22:34:08.076Z,97708.66
2023-02-19T22:36:37.214Z,97737.31
2023-02-19T22:39:05.806Z,97744.78
2023-02-19T22:41:32.625Z,97725.44
2023-02-19T22:43:59.925Z,97697.56
2023-02-19T22:46:29.737Z,97738.16
2023-02-19T22:48:57.288Z,97745.97
2023-02-19T22:51:24.683Z,97725.72
2023-02-19T22:53:53.729Z,97696.31
2023-02-19T22:56:22.494Z,97731.88
2023-02-19T22:58:49.122Z,97740.31
2023-02-19T23:17:29.668Z,97765.53
2023-02-19T23:19:56.320Z,97765.38
2023-02-19T23:22:22.827Z,97763.06
2023-02-19T23:24:49.252Z,97761.72
2023-02-19T23:27:15.905Z,97765.22
2023-02-19T23:29:43.257Z,97763.06
2023-02-19T23:32:10.652Z,97759.19
2023-02-19T23:34:37.191Z,97764.63
2023-02-19T23:37:03.654Z,97755.28
2023-02-19T23:39:30.188Z,97760.94
2023-02-19T23:41:57.887Z,97767.75
2023-02-19T23:44:25.244Z,97769.75
2023-02-19T23:46:52.537Z,97765.72
2023-02-19T23:49:19.983Z,97745.69
2023-02-19T23:51:46.543Z,97748.06
2023-02-19T23:54:14.228Z,97756.78
2023-02-19T23:56:41.184Z,97755.66
2023-02-19T23:59:07.796Z,97761.09
